Rankings de siempre
Mejores tiempos personales válidos de atleta a través de todos los eventos y temporadas. Cada atleta aparece una vez por división.
Busca por nombre y abre la página donde está clasificado este récord de división.
32,082 atletas clasificados
Los finishers de HYROX ELITE 15 se rastrean por separado — ver la clasificación Elite.
| Pos. | Pos. AG | Atleta | Nacionalidad | Categoría de edad | TiempoMejor tiempo | Diferencia |
|---|---|---|---|---|---|---|
| 8151 | #1772 | Guillaume CastetsFRA · M 35-39 · AG #1772 | FRA | M 35-39 | 1:15:26 | +21:59 |
| 8152 | #2237 | Thomas MarcelFRA · M 25-29 · AG #2237 | FRA | M 25-29 | 1:15:26 | +21:59 |
| 8153 | #2236 | Callum CrosbyGBR · M 25-29 · AG #2236 | GBR | M 25-29 | 1:15:26 | +21:59 |
| 8154 | #2806 | Alek KwiecińskiPOL · M 30-34 · AG #2806 | POL | M 30-34 | 1:15:26 | +21:59 |
| 8155 | #2805 | Marvin MoserGER · M 30-34 · AG #2805 | GER | M 30-34 | 1:15:26 | +21:59 |
| 8156 | #2804 | Bear SitzerUSA · M 30-34 · AG #2804 | USA | M 30-34 | 1:15:26 | +21:59 |
| 8157 | #1771 | Adam PowellGBR · M 35-39 · AG #1771 | GBR | M 35-39 | 1:15:26 | +21:59 |
| 8158 | #2803 | Dylan KatusGBR · M 30-34 · AG #2803 | GBR | M 30-34 | 1:15:26 | +21:59 |
| 8159 | #825 | Mads HermansenDEN · M 40-44 · AG #825 | DEN | M 40-44 | 1:15:26 | +21:59 |
| 8160 | #2239 | Carl ChristensenNZL · M 25-29 · AG #2239 | NZL | M 25-29 | 1:15:26 | +21:59 |
| 8161 | #2240 | Alexander KoldborgDEN · M 25-29 · AG #2240 | DEN | M 25-29 | 1:15:26 | +21:59 |
| 8162 | #318 | Ovidiu IonitaITA · M 45-49 · AG #318 | ITA | M 45-49 | 1:15:26 | +21:59 |
| 8163 | #2802 | Nazar ShumanskyyITA · M 30-34 · AG #2802 | ITA | M 30-34 | 1:15:26 | +21:59 |
| 8164 | #2235 | Panayiotis MoulashisCYP · M 25-29 · AG #2235 | CYP | M 25-29 | 1:15:26 | +21:59 |
| 8165 | #1773 | Lenoir Piuco JuniorBRA · M 35-39 · AG #1773 | BRA | M 35-39 | 1:15:26 | +21:59 |
| 8166 | #884 | Max PineauFRA · M 16-24 · AG #884 | FRA | M 16-24 | 1:15:26 | +21:59 |
| 8167 | #2242 | William McallisterGBR · M 25-29 · AG #2242 | GBR | M 25-29 | 1:15:27 | +22:00 |
| 8168 | #2807 | Andreas FlederGER · M 30-34 · AG #2807 | GER | M 30-34 | 1:15:27 | +22:00 |
| 8169 | #1775 | Daniel EmmertGER · M 35-39 · AG #1775 | GER | M 35-39 | 1:15:27 | +22:00 |
| 8170 | #2243 | Stijn StevensNED · M 25-29 · AG #2243 | NED | M 25-29 | 1:15:27 | +22:00 |
| 8171 | #1774 | Daniel ZaunerGER · M 35-39 · AG #1774 | GER | M 35-39 | 1:15:27 | +22:00 |
| 8172 | #885 | Andew LackleyUSA · M 16-24 · AG #885 | USA | M 16-24 | 1:15:27 | +22:00 |
| 8173 | #827 | Ed IRONSUSA · M 40-44 · AG #827 | USA | M 40-44 | 1:15:27 | +22:00 |
| 8174 | #1776 | Baptiste TheilFRA · M 35-39 · AG #1776 | FRA | M 35-39 | 1:15:27 | +22:00 |
| 8175 | #886 | Julius Gorm KjærDEN · M 16-24 · AG #886 | DEN | M 16-24 | 1:15:27 | +22:00 |
Página 327 de 1,284